createdAt,value
2023-04-17T00:00:43.218Z,2.47
2023-04-17T00:03:11.950Z,2.47
2023-04-17T00:05:41.143Z,2.17
2023-04-17T00:08:08.900Z,2.20
2023-04-17T00:10:36.787Z,2.27
2023-04-17T00:13:04.613Z,2.50
2023-04-17T00:15:32.366Z,2.10
2023-04-17T00:18:00.276Z,2.37
2023-04-17T00:20:28.196Z,2.20
2023-04-17T00:22:57.342Z,2.43
2023-04-17T00:25:25.388Z,2.73
2023-04-17T00:27:53.184Z,2.30
2023-04-17T00:30:20.959Z,2.37
2023-04-17T00:32:48.753Z,2.50
2023-04-17T00:35:16.805Z,2.37
2023-04-17T00:37:44.594Z,2.20
2023-04-17T00:40:14.610Z,2.13
2023-04-17T00:42:42.376Z,2.33
2023-04-17T00:45:11.307Z,2.20
2023-04-17T00:47:39.652Z,2.47
2023-04-17T00:50:09.116Z,2.43
2023-04-17T00:52:37.070Z,1.97
2023-04-17T00:55:05.618Z,2.43
2023-04-17T00:57:35.607Z,2.20
2023-04-17T01:00:04.250Z,2.30
2023-04-17T01:02:32.333Z,2.70
2023-04-17T01:05:00.208Z,2.37
2023-04-17T01:07:28.761Z,2.13
2023-04-17T01:09:56.498Z,2.63
2023-04-17T01:12:25.445Z,2.03
2023-04-17T01:14:55.659Z,2.80
2023-04-17T01:17:26.020Z,2.50
2023-04-17T01:19:53.993Z,2.67
2023-04-17T01:22:21.994Z,2.67
2023-04-17T01:24:51.357Z,2.73
2023-04-17T01:27:22.321Z,2.40
2023-04-17T01:29:50.319Z,2.97
2023-04-17T01:32:18.775Z,2.90
2023-04-17T01:34:46.753Z,2.33
2023-04-17T01:37:14.530Z,2.80
2023-04-17T01:39:42.309Z,2.37
2023-04-17T01:42:11.409Z,2.53
2023-04-17T01:44:39.160Z,2.40
2023-04-17T01:47:06.931Z,2.77
2023-04-17T01:49:34.708Z,3.30
2023-04-17T01:52:02.518Z,2.83
2023-04-17T01:54:30.351Z,2.60
2023-04-17T01:56:58.155Z,2.57
2023-04-17T01:59:27.340Z,2.60
2023-04-17T02:01:57.121Z,2.80
2023-04-17T02:04:25.153Z,3.00
2023-04-17T02:06:53.030Z,2.70
2023-04-17T02:09:20.841Z,2.40
2023-04-17T02:11:48.577Z,3.10
2023-04-17T02:14:18.521Z,2.90
2023-04-17T02:16:47.682Z,2.40
2023-04-17T02:19:15.470Z,2.73
2023-04-17T02:21:43.237Z,3.37
2023-04-17T02:24:11.027Z,3.30
2023-04-17T02:26:40.449Z,3.30
2023-04-17T02:29:08.260Z,2.70
2023-04-17T02:31:36.061Z,2.57
2023-04-17T02:34:05.312Z,2.70
2023-04-17T02:36:33.067Z,3.10
2023-04-17T02:39:00.876Z,2.77
2023-04-17T02:41:28.637Z,3.47
2023-04-17T02:43:56.615Z,2.90
2023-04-17T02:46:24.501Z,3.10
2023-04-17T02:48:53.298Z,2.73
2023-04-17T02:51:22.413Z,3.27
2023-04-17T02:53:50.195Z,2.77
2023-04-17T02:56:18.338Z,3.43
2023-04-17T02:58:46.165Z,3.00
2023-04-17T03:01:14.000Z,3.70
2023-04-17T03:03:42.777Z,3.50
2023-04-17T03:06:10.829Z,3.10
2023-04-17T03:08:39.977Z,3.10
2023-04-17T03:11:07.967Z,3.30
2023-04-17T03:13:37.323Z,2.97
2023-04-17T03:16:05.669Z,2.97
2023-04-17T03:18:33.700Z,3.43
2023-04-17T03:21:01.498Z,3.40
2023-04-17T03:23:29.234Z,3.30
2023-04-17T03:25:58.356Z,3.20
2023-04-17T03:28:26.206Z,2.97
2023-04-17T03:30:54.866Z,3.13
2023-04-17T03:33:22.655Z,2.80
2023-04-17T03:35:50.439Z,3.20
2023-04-17T03:38:18.675Z,3.07
2023-04-17T03:40:46.508Z,3.20
2023-04-17T03:43:15.600Z,2.93
2023-04-17T03:45:43.396Z,2.43
2023-04-17T03:48:11.218Z,2.90
2023-04-17T03:50:39.622Z,3.07
2023-04-17T03:53:07.407Z,2.80
2023-04-17T03:55:35.945Z,3.10
2023-04-17T03:58:03.758Z,2.73
2023-04-17T04:00:32.877Z,3.27
2023-04-17T04:03:00.820Z,2.73
2023-04-17T04:05:28.839Z,2.83
2023-04-17T04:07:56.772Z,2.70
2023-04-17T04:10:24.560Z,2.97
2023-04-17T04:12:52.321Z,2.93
2023-04-17T04:15:20.342Z,2.40
2023-04-17T04:17:49.511Z,2.60
2023-04-17T04:20:17.504Z,2.73
2023-04-17T04:22:45.466Z,2.37
2023-04-17T04:25:13.239Z,2.70
2023-04-17T04:27:45.492Z,2.50
2023-04-17T04:30:14.590Z,2.37
2023-04-17T04:32:42.379Z,2.40
2023-04-17T04:35:11.865Z,2.37
2023-04-17T04:37:39.677Z,2.80
2023-04-17T04:40:10.708Z,2.57
2023-04-17T04:42:39.580Z,2.80
2023-04-17T04:45:08.375Z,2.50
2023-04-17T04:47:36.955Z,2.90
2023-04-17T04:50:05.007Z,3.20
2023-04-17T04:52:34.096Z,2.87
2023-04-17T04:55:01.961Z,2.70
2023-04-17T04:57:29.852Z,2.80
2023-04-17T04:59:57.615Z,3.60
2023-04-17T05:02:25.929Z,2.70
2023-04-17T05:04:53.896Z,2.63
2023-04-17T05:07:21.782Z,3.30
2023-04-17T05:09:51.034Z,2.80
2023-04-17T05:12:18.797Z,2.87
2023-04-17T05:14:47.758Z,3.67
2023-04-17T05:17:15.529Z,3.13
2023-04-17T05:19:43.289Z,2.70
2023-04-17T05:22:11.063Z,3.50
2023-04-17T05:24:38.840Z,3.10
2023-04-17T05:27:07.954Z,2.93
2023-04-17T05:29:37.219Z,3.13
2023-04-17T05:32:05.312Z,3.10
2023-04-17T05:34:33.074Z,3.10
2023-04-17T05:37:00.847Z,3.97
2023-04-17T05:39:28.606Z,3.23
2023-04-17T05:41:56.362Z,3.13
2023-04-17T05:44:25.737Z,3.97
2023-04-17T05:46:53.502Z,3.93
2023-04-17T05:49:21.244Z,3.87
2023-04-17T05:51:49.014Z,4.50
2023-04-17T05:54:16.754Z,3.80
2023-04-17T05:56:44.745Z,3.77
2023-04-17T05:59:12.703Z,5.00
2023-04-17T06:01:43.509Z,4.80
2023-04-17T06:04:11.573Z,4.10
2023-04-17T06:06:39.535Z,4.10
2023-04-17T06:09:09.378Z,4.17
2023-04-17T06:11:37.258Z,4.60
2023-04-17T06:14:05.058Z,3.77
2023-04-17T06:16:32.854Z,4.30
2023-04-17T06:19:02.062Z,4.40
2023-04-17T06:21:30.025Z,3.03
2023-04-17T06:23:57.774Z,3.60
2023-04-17T06:26:25.516Z,3.90
2023-04-17T06:28:53.267Z,3.50
2023-04-17T06:31:21.206Z,4.13
2023-04-17T06:33:50.044Z,3.93
2023-04-17T06:36:19.183Z,3.73
2023-04-17T06:38:46.957Z,3.00
2023-04-17T06:41:15.294Z,3.40
2023-04-17T06:43:43.032Z,3.10
2023-04-17T06:46:10.846Z,3.93
2023-04-17T06:48:38.619Z,3.03
2023-04-17T06:51:06.579Z,2.93
2023-04-17T06:53:35.884Z,3.17
2023-04-17T06:56:03.767Z,3.20
2023-04-17T06:58:31.584Z,3.67
2023-04-17T07:00:59.356Z,3.40
2023-04-17T07:03:27.329Z,3.10
2023-04-17T07:05:55.243Z,3.17
2023-04-17T07:08:23.106Z,2.73
2023-04-17T07:10:52.224Z,2.97
2023-04-17T07:13:19.989Z,2.73
2023-04-17T07:15:52.431Z,2.53
2023-04-17T07:18:21.474Z,2.70
2023-04-17T07:20:49.258Z,2.53
2023-04-17T07:23:17.036Z,2.40
2023-04-17T07:25:44.919Z,2.30
2023-04-17T07:28:14.237Z,2.47
2023-04-17T07:30:42.598Z,2.23
2023-04-17T07:33:10.558Z,2.47
2023-04-17T07:35:38.439Z,1.83
2023-04-17T07:38:06.236Z,1.53
2023-04-17T07:40:36.734Z,1.77
2023-04-17T07:43:04.756Z,1.60
2023-04-17T07:45:37.029Z,2.20
2023-04-17T07:48:06.120Z,2.30
2023-04-17T07:50:33.926Z,1.73
2023-04-17T07:53:01.962Z,1.60
2023-04-17T07:55:29.845Z,2.00
2023-04-17T07:57:58.678Z,1.53
2023-04-17T08:00:26.482Z,1.60
2023-04-17T08:02:55.769Z,1.43
2023-04-17T08:05:24.155Z,1.60
2023-04-17T08:07:52.126Z,1.40
2023-04-17T08:10:19.973Z,1.37
2023-04-17T08:12:47.752Z,1.30
2023-04-17T08:15:15.538Z,1.33
2023-04-17T08:17:43.384Z,1.13
2023-04-17T08:20:12.742Z,1.50
2023-04-17T08:22:41.354Z,1.47
2023-04-17T08:25:10.669Z,1.40
2023-04-17T08:27:39.764Z,1.20
2023-04-17T08:30:12.566Z,1.23
2023-04-17T08:32:42.385Z,1.80
2023-04-17T08:35:13.752Z,1.53
2023-04-17T08:37:42.285Z,1.73
2023-04-17T08:40:12.040Z,1.67
2023-04-17T08:42:41.426Z,1.77
2023-04-17T08:45:11.457Z,1.23
2023-04-17T08:47:40.838Z,1.17
2023-04-17T08:50:10.797Z,1.50
2023-04-17T08:52:43.755Z,1.30
2023-04-17T08:55:13.755Z,1.20
2023-04-17T08:57:58.564Z,1.37
2023-04-17T09:00:28.351Z,1.50
2023-04-17T09:02:57.773Z,1.70
2023-04-17T09:05:29.116Z,1.50
2023-04-17T09:08:12.604Z,1.30
2023-04-17T09:10:41.892Z,1.37
2023-04-17T09:13:10.384Z,1.70
2023-04-17T09:15:38.330Z,1.30
2023-04-17T09:18:06.191Z,1.47
2023-04-17T09:20:48.722Z,2.20
2023-04-17T09:23:18.272Z,1.80
2023-04-17T09:25:46.062Z,1.40
2023-04-17T09:28:16.088Z,1.50
2023-04-17T09:30:44.316Z,1.10
2023-04-17T09:33:12.728Z,1.10
2023-04-17T09:35:40.672Z,1.27
2023-04-17T09:38:08.712Z,1.00
2023-04-17T09:40:43.104Z,1.23
2023-04-17T09:43:11.399Z,1.23
2023-04-17T09:45:42.860Z,1.30
2023-04-17T09:48:12.028Z,1.40
2023-04-17T09:50:40.791Z,1.00
2023-04-17T09:53:09.294Z,1.50
2023-04-17T09:55:37.697Z,1.23
2023-04-17T09:58:08.370Z,1.20
2023-04-17T10:00:37.726Z,1.20
2023-04-17T10:03:06.202Z,1.23
2023-04-17T10:05:34.102Z,1.23
2023-04-17T10:08:02.156Z,1.30
2023-04-17T10:10:33.327Z,1.10
2023-04-17T10:13:02.906Z,1.20
2023-04-17T10:15:33.693Z,1.60
2023-04-17T10:18:19.557Z,1.43
2023-04-17T10:20:48.316Z,1.50
2023-04-17T10:23:28.035Z,1.40
2023-04-17T10:26:41.800Z,1.33
2023-04-17T10:29:10.073Z,1.20
2023-04-17T10:32:28.435Z,0.97
2023-04-17T10:34:59.136Z,1.07
2023-04-17T10:38:05.744Z,1.30
2023-04-17T10:40:35.525Z,1.40
2023-04-17T10:43:05.910Z,1.40
2023-04-17T10:45:55.502Z,1.43
2023-04-17T10:48:28.058Z,1.40
2023-04-17T10:50:57.802Z,1.47
2023-04-17T10:53:39.078Z,1.33
2023-04-17T10:56:07.049Z,0.90
2023-04-17T10:58:38.852Z,1.10
2023-04-17T11:01:12.333Z,1.20
2023-04-17T11:03:41.741Z,1.43
2023-04-17T11:06:12.609Z,1.03
2023-04-17T11:08:40.511Z,1.47
2023-04-17T11:11:11.748Z,1.00
2023-04-17T11:13:41.910Z,1.13
2023-04-17T11:16:10.336Z,1.00
2023-04-17T11:18:38.661Z,1.00
2023-04-17T11:21:06.785Z,1.07
2023-04-17T11:23:36.164Z,0.73
2023-04-17T11:26:03.970Z,0.70
2023-04-17T11:28:31.922Z,0.93
2023-04-17T11:31:00.788Z,1.00
2023-04-17T11:33:29.065Z,0.97
2023-04-17T11:35:56.843Z,1.00
2023-04-17T11:38:24.978Z,0.80
2023-04-17T11:40:55.648Z,1.00
2023-04-17T11:43:24.736Z,0.70
2023-04-17T11:45:53.994Z,0.80
2023-04-17T11:48:23.325Z,0.93
2023-04-17T11:50:54.728Z,0.70
2023-04-17T11:53:22.515Z,0.80
2023-04-17T11:56:10.336Z,0.60
2023-04-17T11:58:48.273Z,0.80
2023-04-17T12:01:16.640Z,0.97
2023-04-17T12:03:45.547Z,0.87
2023-04-17T12:06:13.762Z,0.90
2023-04-17T12:08:47.055Z,1.30
2023-04-17T12:11:23.789Z,1.00
2023-04-17T12:13:53.325Z,0.93
2023-04-17T12:16:21.212Z,0.80
2023-04-17T12:18:49.120Z,0.73
2023-04-17T12:21:17.188Z,0.80
2023-04-17T12:23:44.947Z,0.83
2023-04-17T12:26:12.729Z,0.70
2023-04-17T12:28:40.554Z,0.63
2023-04-17T12:31:10.004Z,0.70
2023-04-17T12:33:37.879Z,0.70
2023-04-17T12:36:06.947Z,0.87
2023-04-17T12:38:34.863Z,0.80
2023-04-17T12:41:02.630Z,0.83
2023-04-17T12:43:32.276Z,0.80
2023-04-17T12:46:00.073Z,0.80
2023-04-17T12:48:32.175Z,0.70
2023-04-17T12:51:00.719Z,0.70
2023-04-17T12:53:28.499Z,0.60
2023-04-17T12:55:56.265Z,0.70
2023-04-17T12:58:24.025Z,0.60
2023-04-17T13:00:51.809Z,0.70
2023-04-17T13:03:19.828Z,0.70
2023-04-17T13:05:49.588Z,0.70
2023-04-17T13:08:17.370Z,0.60
2023-04-17T13:10:45.212Z,0.50
2023-04-17T13:13:13.036Z,0.90
2023-04-17T13:15:40.798Z,0.80
2023-04-17T13:18:10.413Z,0.40
2023-04-17T13:20:38.452Z,0.57
2023-04-17T13:23:07.518Z,0.70
2023-04-17T13:25:35.406Z,0.60
2023-04-17T13:28:03.710Z,0.60
2023-04-17T13:30:32.189Z,0.60
2023-04-17T13:33:00.144Z,0.63
2023-04-17T13:35:28.072Z,0.67
2023-04-17T13:37:57.632Z,0.70
2023-04-17T13:40:26.758Z,0.80
2023-04-17T13:42:54.544Z,0.73
2023-04-17T13:45:23.043Z,0.63
2023-04-17T13:47:50.871Z,0.70
2023-04-17T13:50:18.797Z,0.90
2023-04-17T13:52:46.554Z,0.90
2023-04-17T13:55:14.382Z,0.80
2023-04-17T13:57:43.528Z,1.00
2023-04-17T14:00:12.368Z,0.77
2023-04-17T14:02:40.425Z,1.07
2023-04-17T14:05:09.055Z,0.70
2023-04-17T14:07:36.916Z,0.80
2023-04-17T14:10:05.143Z,0.70
2023-04-17T14:12:32.925Z,0.80
2023-04-17T14:15:02.028Z,1.00
2023-04-17T14:17:30.022Z,0.80
2023-04-17T14:19:57.753Z,0.70
2023-04-17T14:22:25.566Z,0.80
2023-04-17T14:24:53.296Z,1.07
2023-04-17T14:27:21.048Z,0.80
2023-04-17T14:29:48.804Z,0.87
2023-04-17T14:32:17.982Z,0.70
2023-04-17T14:34:45.966Z,0.60
2023-04-17T14:37:13.848Z,0.80
2023-04-17T14:39:41.594Z,0.70
2023-04-17T14:42:09.345Z,0.70
2023-04-17T14:44:37.128Z,0.60
2023-04-17T14:47:05.209Z,0.60
2023-04-17T14:49:34.466Z,0.80
2023-04-17T14:52:02.264Z,0.70
2023-04-17T14:54:30.048Z,1.00
2023-04-17T14:56:58.581Z,0.70
2023-04-17T14:59:28.255Z,0.70
2023-04-17T15:01:56.133Z,0.77
2023-04-17T15:04:24.217Z,0.80
2023-04-17T15:06:53.490Z,0.90
2023-04-17T15:09:21.266Z,0.90
2023-04-17T15:11:49.063Z,0.73
2023-04-17T15:14:16.846Z,0.90
2023-04-17T15:16:44.630Z,1.30
2023-04-17T15:19:12.683Z,1.00
2023-04-17T15:21:40.612Z,0.80
2023-04-17T15:24:09.912Z,0.90
2023-04-17T15:26:37.725Z,1.07
2023-04-17T15:29:05.509Z,1.13
2023-04-17T15:31:33.314Z,1.00
2023-04-17T15:34:01.094Z,0.97
2023-04-17T15:36:32.085Z,1.17
2023-04-17T15:38:59.871Z,1.10
2023-04-17T15:41:29.168Z,1.30
2023-04-17T15:43:57.050Z,1.30
2023-04-17T15:46:24.902Z,1.20
2023-04-17T15:49:07.657Z,1.67
2023-04-17T15:51:37.304Z,1.77
2023-04-17T15:54:06.409Z,2.03
2023-04-17T15:56:35.510Z,1.87
2023-04-17T15:59:03.348Z,2.47
2023-04-17T16:01:31.279Z,1.60
2023-04-17T16:03:59.236Z,2.00
2023-04-17T16:06:27.465Z,1.80
2023-04-17T16:08:55.267Z,2.53
2023-04-17T16:11:23.437Z,2.60
2023-04-17T16:13:52.665Z,2.63
2023-04-17T16:16:20.581Z,2.30
2023-04-17T16:18:48.454Z,2.50
2023-04-17T16:21:16.333Z,2.80
2023-04-17T16:23:45.676Z,2.60
2023-04-17T16:26:15.077Z,2.87
2023-04-17T16:28:43.095Z,2.87
2023-04-17T16:31:12.621Z,2.70
2023-04-17T16:33:41.194Z,3.23
2023-04-17T16:36:09.307Z,3.80
2023-04-17T16:38:38.585Z,2.97
2023-04-17T16:41:06.371Z,3.57
2023-04-17T16:43:34.142Z,3.80
2023-04-17T16:46:10.991Z,4.27
2023-04-17T16:48:47.915Z,3.60
2023-04-17T16:51:15.729Z,2.90
2023-04-17T16:53:44.231Z,3.43
2023-04-17T16:56:12.033Z,3.63
2023-04-17T16:58:39.805Z,3.03
2023-04-17T17:01:07.616Z,3.47
2023-04-17T17:03:37.607Z,3.23
2023-04-17T17:06:07.085Z,3.33
2023-04-17T17:08:34.832Z,3.33
2023-04-17T17:11:03.475Z,2.97
2023-04-17T17:13:31.318Z,3.20
2023-04-17T17:15:59.120Z,3.33
2023-04-17T17:18:26.985Z,3.80
2023-04-17T17:20:56.154Z,3.93
2023-04-17T17:23:25.324Z,3.40
2023-04-17T17:25:53.179Z,3.40
2023-04-17T17:28:21.032Z,3.63
2023-04-17T17:30:48.812Z,3.23
2023-04-17T17:33:16.999Z,3.17
2023-04-17T17:35:44.775Z,3.40
2023-04-17T17:38:12.585Z,2.87
2023-04-17T17:40:41.677Z,3.33
2023-04-17T17:43:09.447Z,3.27
2023-04-17T17:45:37.220Z,3.53
2023-04-17T17:48:05.681Z,4.53
2023-04-17T17:50:33.441Z,3.93
2023-04-17T17:53:01.188Z,3.30
2023-04-17T17:55:28.936Z,3.37
2023-04-17T17:57:58.004Z,3.80
2023-04-17T18:00:25.980Z,3.30
2023-04-17T18:02:53.878Z,3.30
2023-04-17T18:05:21.724Z,3.70
2023-04-17T18:07:49.508Z,3.43
2023-04-17T18:10:17.731Z,4.10
2023-04-17T18:12:45.572Z,4.37
2023-04-17T18:15:14.692Z,3.87
2023-04-17T18:17:42.510Z,3.40
2023-04-17T18:20:11.225Z,3.83
2023-04-17T18:22:38.990Z,3.53
2023-04-17T18:25:07.790Z,3.90
2023-04-17T18:27:36.797Z,3.87
2023-04-17T18:30:05.146Z,3.50
2023-04-17T18:32:34.522Z,3.60
2023-04-17T18:35:02.827Z,3.80
2023-04-17T18:37:30.675Z,3.13
2023-04-17T18:39:58.491Z,3.10
2023-04-17T18:42:26.330Z,3.40
2023-04-17T18:44:54.083Z,2.97
2023-04-17T18:47:21.834Z,2.90
2023-04-17T18:49:52.859Z,3.40
2023-04-17T18:52:20.799Z,3.13
2023-04-17T18:54:48.662Z,3.67
2023-04-17T18:57:16.388Z,2.97
2023-04-17T18:59:44.141Z,3.70
2023-04-17T19:02:11.920Z,4.40
2023-04-17T19:04:39.703Z,4.03
2023-04-17T19:07:08.802Z,4.27
2023-04-17T19:09:36.533Z,3.97
2023-04-17T19:12:04.574Z,4.23
2023-04-17T19:14:33.114Z,3.70
2023-04-17T19:17:00.942Z,3.67
2023-04-17T19:19:28.680Z,4.30
2023-04-17T19:21:56.438Z,3.53
2023-04-17T19:24:25.611Z,3.63
2023-04-17T19:26:53.379Z,4.33
2023-04-17T19:29:21.178Z,3.70
2023-04-17T19:31:48.936Z,3.53
2023-04-17T19:34:16.728Z,4.10
2023-04-17T19:36:44.581Z,3.60
2023-04-17T19:39:12.513Z,3.50
2023-04-17T19:41:42.570Z,3.17
2023-04-17T19:44:10.354Z,3.20
2023-04-17T19:46:38.262Z,3.00
2023-04-17T19:49:06.428Z,3.57
2023-04-17T19:51:34.209Z,3.53
2023-04-17T19:54:02.003Z,3.53
2023-04-17T19:56:29.843Z,4.10
2023-04-17T19:59:02.746Z,4.17
2023-04-17T20:01:31.372Z,4.63
2023-04-17T20:04:00.061Z,4.50
2023-04-17T20:06:28.071Z,4.43
2023-04-17T20:08:58.188Z,4.27
2023-04-17T20:11:25.975Z,4.40
2023-04-17T20:13:53.723Z,4.20
2023-04-17T20:16:23.850Z,3.90
2023-04-17T20:18:52.449Z,3.60
2023-04-17T20:21:20.216Z,4.87
2023-04-17T20:23:48.531Z,4.43
2023-04-17T20:26:16.336Z,3.87
2023-04-17T20:28:44.087Z,4.00
2023-04-17T20:31:11.895Z,4.53
2023-04-17T20:33:41.087Z,4.13
2023-04-17T20:36:09.161Z,3.73
2023-04-17T20:38:36.967Z,4.33
2023-04-17T20:41:04.775Z,3.97
2023-04-17T20:43:33.370Z,3.87
2023-04-17T20:46:01.180Z,4.10
2023-04-17T20:48:29.048Z,4.57
2023-04-17T20:50:58.135Z,3.80
2023-04-17T20:53:25.910Z,4.07
2023-04-17T20:55:54.538Z,4.00
2023-04-17T20:58:23.616Z,3.90
2023-04-17T21:01:00.798Z,3.90
2023-04-17T21:03:31.359Z,4.60
2023-04-17T21:06:00.792Z,4.17
2023-04-17T21:08:28.926Z,4.40
2023-04-17T21:10:56.726Z,4.30
2023-04-17T21:13:24.829Z,4.30
2023-04-17T21:15:52.651Z,4.10
2023-04-17T21:18:20.529Z,4.90
2023-04-17T21:20:48.270Z,4.90
2023-04-17T21:23:17.386Z,4.57
2023-04-17T21:25:45.126Z,4.60
2023-04-17T21:28:12.846Z,4.60
2023-04-17T21:30:40.662Z,4.43
2023-04-17T21:33:08.423Z,4.63
2023-04-17T21:35:36.985Z,4.87
2023-04-17T21:38:04.757Z,4.90
2023-04-17T21:40:34.634Z,5.03
2023-04-17T21:43:04.667Z,4.77
2023-04-17T21:45:32.781Z,5.07
2023-04-17T21:48:00.639Z,4.30
2023-04-17T21:50:28.467Z,4.30
2023-04-17T21:52:56.274Z,4.77
2023-04-17T21:55:24.080Z,4.60
2023-04-17T21:57:53.191Z,4.67
2023-04-17T22:00:21.675Z,5.27
2023-04-17T22:02:49.514Z,4.90
2023-04-17T22:05:17.561Z,4.67
2023-04-17T22:07:54.522Z,4.47
2023-04-17T22:10:23.831Z,5.17
2023-04-17T22:12:53.199Z,4.80
2023-04-17T22:15:21.118Z,4.50
2023-04-17T22:17:48.921Z,5.27
2023-04-17T22:20:16.868Z,5.67
2023-04-17T22:22:44.651Z,5.10
2023-04-17T22:25:12.405Z,5.10
2023-04-17T22:27:40.199Z,5.17
2023-04-17T22:30:09.999Z,6.00
2023-04-17T22:32:37.813Z,5.57
2023-04-17T22:35:06.476Z,5.70
2023-04-17T22:37:34.247Z,5.87
2023-04-17T22:40:02.010Z,5.80
2023-04-17T22:42:29.762Z,5.37
2023-04-17T22:44:57.582Z,5.43
2023-04-17T22:47:26.740Z,5.40
2023-04-17T22:49:55.016Z,5.60
2023-04-17T22:52:22.784Z,5.33
2023-04-17T22:54:50.594Z,5.30
2023-04-17T22:57:18.379Z,5.47
2023-04-17T22:59:46.308Z,5.80
2023-04-17T23:02:14.129Z,6.40
2023-04-17T23:04:43.300Z,5.97
2023-04-17T23:07:11.110Z,5.57
2023-04-17T23:09:39.001Z,5.30
2023-04-17T23:12:07.175Z,5.63
2023-04-17T23:14:34.931Z,6.47
2023-04-17T23:17:02.689Z,5.13
2023-04-17T23:19:30.447Z,5.50
2023-04-17T23:22:00.908Z,5.83
2023-04-17T23:24:28.779Z,5.10
2023-04-17T23:26:57.415Z,5.13
2023-04-17T23:29:25.183Z,4.43
2023-04-17T23:31:53.107Z,4.70
2023-04-17T23:34:21.292Z,5.27
2023-04-17T23:36:49.055Z,5.67
2023-04-17T23:39:18.156Z,5.70
2023-04-17T23:41:45.918Z,4.73
2023-04-17T23:44:13.899Z,4.60
2023-04-17T23:46:41.902Z,5.40
2023-04-17T23:49:09.702Z,4.97
2023-04-17T23:51:37.467Z,4.73
2023-04-17T23:54:05.466Z,4.87
2023-04-17T23:56:34.622Z,4.47
2023-04-17T23:59:02.399Z,5.00
